sensor_id;sensor_type;location;lat;lon;timestamp;P1;durP1;ratioP1;P2;durP2;ratioP2
51612;SDS011;37694;51.748;14.326;2023-05-10T00:00:38;5.70;;;5.00;;
51612;SDS011;37694;51.748;14.326;2023-05-10T00:03:04;4.45;;;3.95;;
51612;SDS011;37694;51.748;14.326;2023-05-10T00:05:30;4.38;;;3.88;;
51612;SDS011;37694;51.748;14.326;2023-05-10T00:07:56;4.15;;;3.75;;
51612;SDS011;37694;51.748;14.326;2023-05-10T00:10:22;5.38;;;4.10;;
51612;SDS011;37694;51.748;14.326;2023-05-10T00:12:48;4.93;;;4.43;;
51612;SDS011;37694;51.748;14.326;2023-05-10T00:15:14;4.30;;;3.90;;
51612;SDS011;37694;51.748;14.326;2023-05-10T00:17:39;7.15;;;4.45;;
51612;SDS011;37694;51.748;14.326;2023-05-10T00:20:05;5.03;;;4.45;;
51612;SDS011;37694;51.748;14.326;2023-05-10T00:22:32;6.00;;;4.85;;
51612;SDS011;37694;51.748;14.326;2023-05-10T00:24:58;7.35;;;4.63;;
51612;SDS011;37694;51.748;14.326;2023-05-10T00:27:24;8.98;;;4.32;;
51612;SDS011;37694;51.748;14.326;2023-05-10T00:29:50;5.35;;;4.25;;
51612;SDS011;37694;51.748;14.326;2023-05-10T00:32:16;4.50;;;4.05;;
51612;SDS011;37694;51.748;14.326;2023-05-10T00:34:41;6.50;;;4.70;;
51612;SDS011;37694;51.748;14.326;2023-05-10T00:37:07;5.47;;;4.47;;
51612;SDS011;37694;51.748;14.326;2023-05-10T00:39:33;5.80;;;4.40;;
51612;SDS011;37694;51.748;14.326;2023-05-10T00:41:58;4.65;;;4.25;;
51612;SDS011;37694;51.748;14.326;2023-05-10T00:44:25;5.00;;;4.38;;
51612;SDS011;37694;51.748;14.326;2023-05-10T00:46:51;5.20;;;4.53;;
51612;SDS011;37694;51.748;14.326;2023-05-10T00:49:17;8.13;;;4.38;;
51612;SDS011;37694;51.748;14.326;2023-05-10T00:51:43;5.72;;;5.10;;
51612;SDS011;37694;51.748;14.326;2023-05-10T00:54:11;5.38;;;4.47;;
51612;SDS011;37694;51.748;14.326;2023-05-10T00:56:38;6.32;;;5.13;;
51612;SDS011;37694;51.748;14.326;2023-05-10T00:59:05;5.40;;;4.90;;
51612;SDS011;37694;51.748;14.326;2023-05-10T01:01:31;4.90;;;4.28;;
51612;SDS011;37694;51.748;14.326;2023-05-10T01:03:57;5.88;;;4.72;;
51612;SDS011;37694;51.748;14.326;2023-05-10T01:06:23;5.70;;;4.55;;
51612;SDS011;37694;51.748;14.326;2023-05-10T01:08:49;7.75;;;5.28;;
51612;SDS011;37694;51.748;14.326;2023-05-10T01:11:15;5.53;;;4.93;;
51612;SDS011;37694;51.748;14.326;2023-05-10T01:13:42;5.07;;;4.57;;
51612;SDS011;37694;51.748;14.326;2023-05-10T01:16:11;8.05;;;4.90;;
51612;SDS011;37694;51.748;14.326;2023-05-10T01:18:40;7.22;;;4.97;;
51612;SDS011;37694;51.748;14.326;2023-05-10T01:38:18;5.70;;;4.95;;
51612;SDS011;37694;51.748;14.326;2023-05-10T01:43:56;6.28;;;5.10;;
51612;SDS011;37694;51.748;14.326;2023-05-10T01:46:31;5.30;;;4.78;;
51612;SDS011;37694;51.748;14.326;2023-05-10T01:49:01;5.20;;;4.70;;
51612;SDS011;37694;51.748;14.326;2023-05-10T01:51:36;6.85;;;4.45;;
51612;SDS011;37694;51.748;14.326;2023-05-10T01:54:09;5.43;;;4.93;;
51612;SDS011;37694;51.748;14.326;2023-05-10T01:56:38;5.38;;;4.68;;
51612;SDS011;37694;51.748;14.326;2023-05-10T01:59:08;5.72;;;4.50;;
51612;SDS011;37694;51.748;14.326;2023-05-10T02:01:38;5.93;;;5.35;;
51612;SDS011;37694;51.748;14.326;2023-05-10T02:04:05;5.25;;;4.75;;
51612;SDS011;37694;51.748;14.326;2023-05-10T02:06:33;5.57;;;4.47;;
51612;SDS011;37694;51.748;14.326;2023-05-10T02:09:00;5.93;;;4.80;;
51612;SDS011;37694;51.748;14.326;2023-05-10T02:11:27;6.60;;;4.72;;
51612;SDS011;37694;51.748;14.326;2023-05-10T02:13:54;5.35;;;4.85;;
51612;SDS011;37694;51.748;14.326;2023-05-10T02:16:22;5.57;;;5.00;;
51612;SDS011;37694;51.748;14.326;2023-05-10T02:18:50;6.63;;;5.30;;
51612;SDS011;37694;51.748;14.326;2023-05-10T02:21:17;5.45;;;4.97;;
51612;SDS011;37694;51.748;14.326;2023-05-10T02:23:45;5.72;;;4.50;;
51612;SDS011;37694;51.748;14.326;2023-05-10T02:26:13;7.32;;;5.00;;
51612;SDS011;37694;51.748;14.326;2023-05-10T02:28:41;5.32;;;4.60;;
51612;SDS011;37694;51.748;14.326;2023-05-10T02:31:08;6.65;;;4.50;;
51612;SDS011;37694;51.748;14.326;2023-05-10T02:33:35;6.32;;;4.53;;
51612;SDS011;37694;51.748;14.326;2023-05-10T02:36:03;4.97;;;4.47;;
51612;SDS011;37694;51.748;14.326;2023-05-10T02:38:30;6.07;;;5.32;;
51612;SDS011;37694;51.748;14.326;2023-05-10T02:40:57;6.15;;;4.93;;
51612;SDS011;37694;51.748;14.326;2023-05-10T02:43:24;5.53;;;4.60;;
51612;SDS011;37694;51.748;14.326;2023-05-10T02:45:50;5.38;;;4.60;;
51612;SDS011;37694;51.748;14.326;2023-05-10T02:48:16;6.60;;;5.43;;
51612;SDS011;37694;51.748;14.326;2023-05-10T02:50:43;5.40;;;4.80;;
51612;SDS011;37694;51.748;14.326;2023-05-10T02:53:10;6.28;;;4.70;;
51612;SDS011;37694;51.748;14.326;2023-05-10T02:55:40;5.93;;;4.80;;
51612;SDS011;37694;51.748;14.326;2023-05-10T02:58:10;5.95;;;5.35;;
51612;SDS011;37694;51.748;14.326;2023-05-10T03:00:36;6.55;;;4.80;;
51612;SDS011;37694;51.748;14.326;2023-05-10T03:03:02;6.72;;;5.20;;
51612;SDS011;37694;51.748;14.326;2023-05-10T03:05:27;5.90;;;4.88;;
51612;SDS011;37694;51.748;14.326;2023-05-10T03:07:53;5.53;;;5.03;;
51612;SDS011;37694;51.748;14.326;2023-05-10T03:10:19;5.68;;;4.47;;
51612;SDS011;37694;51.748;14.326;2023-05-10T03:13:01;5.97;;;5.00;;
51612;SDS011;37694;51.748;14.326;2023-05-10T03:18:41;5.10;;;4.60;;
51612;SDS011;37694;51.748;14.326;2023-05-10T03:21:28;5.57;;;5.05;;
51612;SDS011;37694;51.748;14.326;2023-05-10T03:23:58;6.80;;;5.05;;
51612;SDS011;37694;51.748;14.326;2023-05-10T03:26:30;5.85;;;5.00;;
51612;SDS011;37694;51.748;14.326;2023-05-10T03:28:56;5.45;;;4.95;;
51612;SDS011;37694;51.748;14.326;2023-05-10T03:31:24;7.22;;;5.45;;
51612;SDS011;37694;51.748;14.326;2023-05-10T03:33:50;6.10;;;4.75;;
51612;SDS011;37694;51.748;14.326;2023-05-10T03:36:17;6.00;;;4.80;;
51612;SDS011;37694;51.748;14.326;2023-05-10T03:38:43;8.95;;;5.18;;
51612;SDS011;37694;51.748;14.326;2023-05-10T03:41:09;5.75;;;5.10;;
51612;SDS011;37694;51.748;14.326;2023-05-10T03:43:35;5.72;;;5.03;;
51612;SDS011;37694;51.748;14.326;2023-05-10T03:46:04;5.97;;;4.95;;
51612;SDS011;37694;51.748;14.326;2023-05-10T03:48:30;5.32;;;4.82;;
51612;SDS011;37694;51.748;14.326;2023-05-10T03:50:57;5.30;;;4.80;;
51612;SDS011;37694;51.748;14.326;2023-05-10T03:53:22;5.47;;;4.90;;
51612;SDS011;37694;51.748;14.326;2023-05-10T03:55:48;5.50;;;4.88;;
51612;SDS011;37694;51.748;14.326;2023-05-10T03:58:14;6.13;;;4.65;;
51612;SDS011;37694;51.748;14.326;2023-05-10T04:00:40;4.97;;;4.57;;
51612;SDS011;37694;51.748;14.326;2023-05-10T04:03:10;5.35;;;4.85;;
51612;SDS011;37694;51.748;14.326;2023-05-10T04:05:36;5.80;;;5.20;;
51612;SDS011;37694;51.748;14.326;2023-05-10T04:08:02;6.00;;;4.82;;
51612;SDS011;37694;51.748;14.326;2023-05-10T04:10:28;5.50;;;4.97;;
51612;SDS011;37694;51.748;14.326;2023-05-10T04:12:54;4.90;;;4.50;;
51612;SDS011;37694;51.748;14.326;2023-05-10T04:15:20;5.10;;;4.60;;
51612;SDS011;37694;51.748;14.326;2023-05-10T04:17:46;4.57;;;4.18;;
51612;SDS011;37694;51.748;14.326;2023-05-10T04:20:12;4.68;;;4.28;;
51612;SDS011;37694;51.748;14.326;2023-05-10T04:22:38;6.18;;;5.10;;
51612;SDS011;37694;51.748;14.326;2023-05-10T04:25:04;5.55;;;4.60;;
51612;SDS011;37694;51.748;14.326;2023-05-10T04:27:31;5.50;;;4.38;;
51612;SDS011;37694;51.748;14.326;2023-05-10T04:29:57;5.88;;;4.82;;
51612;SDS011;37694;51.748;14.326;2023-05-10T04:32:22;5.70;;;4.88;;
51612;SDS011;37694;51.748;14.326;2023-05-10T04:34:48;9.05;;;4.97;;
51612;SDS011;37694;51.748;14.326;2023-05-10T04:37:14;5.22;;;4.38;;
51612;SDS011;37694;51.748;14.326;2023-05-10T04:39:39;4.93;;;4.53;;
51612;SDS011;37694;51.748;14.326;2023-05-10T04:42:05;5.07;;;4.45;;
51612;SDS011;37694;51.748;14.326;2023-05-10T04:44:34;8.60;;;4.57;;
51612;SDS011;37694;51.748;14.326;2023-05-10T04:47:00;5.07;;;4.57;;
51612;SDS011;37694;51.748;14.326;2023-05-10T04:49:27;5.25;;;4.75;;
51612;SDS011;37694;51.748;14.326;2023-05-10T04:51:53;6.25;;;4.50;;
51612;SDS011;37694;51.748;14.326;2023-05-10T04:54:18;4.97;;;4.18;;
51612;SDS011;37694;51.748;14.326;2023-05-10T04:56:44;4.57;;;4.22;;
51612;SDS011;37694;51.748;14.326;2023-05-10T04:59:10;4.43;;;4.00;;
51612;SDS011;37694;51.748;14.326;2023-05-10T05:01:36;4.43;;;4.03;;
51612;SDS011;37694;51.748;14.326;2023-05-10T05:04:01;5.05;;;4.55;;
51612;SDS011;37694;51.748;14.326;2023-05-10T05:06:27;5.70;;;4.05;;
51612;SDS011;37694;51.748;14.326;2023-05-10T05:08:53;6.32;;;4.40;;
51612;SDS011;37694;51.748;14.326;2023-05-10T05:11:18;11.45;;;4.60;;
51612;SDS011;37694;51.748;14.326;2023-05-10T05:13:45;7.65;;;4.57;;
51612;SDS011;37694;51.748;14.326;2023-05-10T05:16:11;8.80;;;4.25;;
51612;SDS011;37694;51.748;14.326;2023-05-10T05:18:37;7.50;;;4.97;;
51612;SDS011;37694;51.748;14.326;2023-05-10T05:21:02;17.58;;;6.57;;
51612;SDS011;37694;51.748;14.326;2023-05-10T05:23:28;18.08;;;7.10;;
51612;SDS011;37694;51.748;14.326;2023-05-10T05:25:54;52.40;;;10.93;;
51612;SDS011;37694;51.748;14.326;2023-05-10T05:28:20;39.22;;;10.10;;
51612;SDS011;37694;51.748;14.326;2023-05-10T05:30:46;24.23;;;8.82;;
51612;SDS011;37694;51.748;14.326;2023-05-10T05:33:15;29.77;;;8.20;;
51612;SDS011;37694;51.748;14.326;2023-05-10T05:35:41;29.92;;;8.93;;
51612;SDS011;37694;51.748;14.326;2023-05-10T05:38:09;31.65;;;7.82;;
51612;SDS011;37694;51.748;14.326;2023-05-10T05:40:35;36.42;;;7.50;;
51612;SDS011;37694;51.748;14.326;2023-05-10T05:43:00;27.77;;;7.28;;
51612;SDS011;37694;51.748;14.326;2023-05-10T05:45:26;21.23;;;6.70;;
51612;SDS011;37694;51.748;14.326;2023-05-10T05:47:52;22.42;;;7.78;;
51612;SDS011;37694;51.748;14.326;2023-05-10T05:50:17;23.58;;;7.20;;
51612;SDS011;37694;51.748;14.326;2023-05-10T05:52:43;20.05;;;6.30;;
51612;SDS011;37694;51.748;14.326;2023-05-10T05:55:09;21.00;;;7.03;;
51612;SDS011;37694;51.748;14.326;2023-05-10T05:57:34;18.65;;;7.05;;
51612;SDS011;37694;51.748;14.326;2023-05-10T06:00:00;25.67;;;7.75;;
51612;SDS011;37694;51.748;14.326;2023-05-10T06:02:26;17.83;;;6.63;;
51612;SDS011;37694;51.748;14.326;2023-05-10T06:04:51;21.73;;;6.40;;
51612;SDS011;37694;51.748;14.326;2023-05-10T06:07:17;27.25;;;6.50;;
51612;SDS011;37694;51.748;14.326;2023-05-10T06:09:43;25.13;;;7.00;;
51612;SDS011;37694;51.748;14.326;2023-05-10T06:12:08;20.65;;;6.70;;
51612;SDS011;37694;51.748;14.326;2023-05-10T06:14:34;16.52;;;6.50;;
51612;SDS011;37694;51.748;14.326;2023-05-10T06:17:00;20.00;;;7.28;;
51612;SDS011;37694;51.748;14.326;2023-05-10T06:19:28;20.33;;;6.65;;
51612;SDS011;37694;51.748;14.326;2023-05-10T06:21:54;17.83;;;6.18;;
51612;SDS011;37694;51.748;14.326;2023-05-10T06:24:20;19.77;;;7.25;;
51612;SDS011;37694;51.748;14.326;2023-05-10T06:26:46;15.80;;;6.00;;
51612;SDS011;37694;51.748;14.326;2023-05-10T06:29:14;20.13;;;7.07;;
51612;SDS011;37694;51.748;14.326;2023-05-10T06:31:40;16.70;;;6.35;;
51612;SDS011;37694;51.748;14.326;2023-05-10T06:34:06;11.45;;;5.72;;
51612;SDS011;37694;51.748;14.326;2023-05-10T06:36:33;13.65;;;6.53;;
51612;SDS011;37694;51.748;14.326;2023-05-10T06:38:58;21.60;;;6.97;;
51612;SDS011;37694;51.748;14.326;2023-05-10T06:41:24;13.65;;;5.95;;
51612;SDS011;37694;51.748;14.326;2023-05-10T06:43:50;14.82;;;6.18;;
51612;SDS011;37694;51.748;14.326;2023-05-10T06:46:15;14.43;;;5.53;;
51612;SDS011;37694;51.748;14.326;2023-05-10T06:48:41;12.82;;;5.88;;
51612;SDS011;37694;51.748;14.326;2023-05-10T06:51:07;12.13;;;6.53;;
51612;SDS011;37694;51.748;14.326;2023-05-10T06:53:32;13.93;;;6.60;;
51612;SDS011;37694;51.748;14.326;2023-05-10T06:55:58;10.45;;;5.18;;
51612;SDS011;37694;51.748;14.326;2023-05-10T06:58:24;12.75;;;5.85;;
51612;SDS011;37694;51.748;14.326;2023-05-10T07:00:50;11.80;;;5.70;;
51612;SDS011;37694;51.748;14.326;2023-05-10T07:03:15;14.32;;;5.57;;
51612;SDS011;37694;51.748;14.326;2023-05-10T07:05:41;11.25;;;5.75;;
51612;SDS011;37694;51.748;14.326;2023-05-10T07:08:07;13.07;;;6.05;;
51612;SDS011;37694;51.748;14.326;2023-05-10T07:10:33;10.27;;;5.55;;
51612;SDS011;37694;51.748;14.326;2023-05-10T07:13:00;12.65;;;5.95;;
51612;SDS011;37694;51.748;14.326;2023-05-10T07:15:26;13.68;;;5.50;;
51612;SDS011;37694;51.748;14.326;2023-05-10T07:17:52;9.93;;;5.80;;
51612;SDS011;37694;51.748;14.326;2023-05-10T07:20:18;6.78;;;5.03;;
51612;SDS011;37694;51.748;14.326;2023-05-10T07:22:44;11.98;;;4.38;;
51612;SDS011;37694;51.748;14.326;2023-05-10T07:25:10;13.23;;;5.32;;
51612;SDS011;37694;51.748;14.326;2023-05-10T07:27:35;10.18;;;5.05;;
51612;SDS011;37694;51.748;14.326;2023-05-10T07:30:01;10.27;;;5.22;;
51612;SDS011;37694;51.748;14.326;2023-05-10T07:32:27;10.80;;;5.10;;
51612;SDS011;37694;51.748;14.326;2023-05-10T07:34:53;9.43;;;5.47;;
51612;SDS011;37694;51.748;14.326;2023-05-10T07:37:19;9.23;;;4.95;;
51612;SDS011;37694;51.748;14.326;2023-05-10T07:39:44;8.98;;;4.50;;
51612;SDS011;37694;51.748;14.326;2023-05-10T07:42:10;10.38;;;5.10;;
51612;SDS011;37694;51.748;14.326;2023-05-10T07:44:35;10.13;;;5.40;;
51612;SDS011;37694;51.748;14.326;2023-05-10T07:47:01;7.60;;;4.93;;
51612;SDS011;37694;51.748;14.326;2023-05-10T07:49:27;6.40;;;5.00;;
51612;SDS011;37694;51.748;14.326;2023-05-10T07:51:52;4.93;;;4.30;;
51612;SDS011;37694;51.748;14.326;2023-05-10T07:54:18;6.82;;;4.00;;
51612;SDS011;37694;51.748;14.326;2023-05-10T07:56:44;7.18;;;4.35;;
51612;SDS011;37694;51.748;14.326;2023-05-10T07:59:14;8.70;;;4.40;;
51612;SDS011;37694;51.748;14.326;2023-05-10T08:01:41;10.63;;;4.50;;
51612;SDS011;37694;51.748;14.326;2023-05-10T08:04:07;10.40;;;4.95;;
51612;SDS011;37694;51.748;14.326;2023-05-10T08:06:34;6.53;;;4.75;;
51612;SDS011;37694;51.748;14.326;2023-05-10T08:09:00;14.82;;;4.60;;
51612;SDS011;37694;51.748;14.326;2023-05-10T08:11:26;6.60;;;4.35;;
51612;SDS011;37694;51.748;14.326;2023-05-10T08:13:52;7.95;;;4.07;;
51612;SDS011;37694;51.748;14.326;2023-05-10T08:16:18;6.65;;;4.18;;
51612;SDS011;37694;51.748;14.326;2023-05-10T08:18:45;10.98;;;4.05;;
51612;SDS011;37694;51.748;14.326;2023-05-10T08:21:11;7.63;;;4.50;;
51612;SDS011;37694;51.748;14.326;2023-05-10T08:23:38;8.32;;;3.75;;
51612;SDS011;37694;51.748;14.326;2023-05-10T08:26:04;7.13;;;4.28;;
51612;SDS011;37694;51.748;14.326;2023-05-10T08:28:30;7.57;;;4.35;;
51612;SDS011;37694;51.748;14.326;2023-05-10T08:30:55;4.30;;;3.90;;
51612;SDS011;37694;51.748;14.326;2023-05-10T08:33:21;5.97;;;3.67;;
51612;SDS011;37694;51.748;14.326;2023-05-10T08:35:47;7.10;;;4.43;;
51612;SDS011;37694;51.748;14.326;2023-05-10T08:38:13;6.82;;;4.18;;
51612;SDS011;37694;51.748;14.326;2023-05-10T08:40:39;6.78;;;4.38;;
51612;SDS011;37694;51.748;14.326;2023-05-10T08:43:09;4.22;;;3.65;;
51612;SDS011;37694;51.748;14.326;2023-05-10T08:45:40;4.82;;;3.95;;
51612;SDS011;37694;51.748;14.326;2023-05-10T08:48:08;6.80;;;3.88;;
51612;SDS011;37694;51.748;14.326;2023-05-10T08:50:36;6.88;;;3.92;;
51612;SDS011;37694;51.748;14.326;2023-05-10T08:53:04;6.20;;;3.95;;
51612;SDS011;37694;51.748;14.326;2023-05-10T08:55:37;5.30;;;3.35;;
51612;SDS011;37694;51.748;14.326;2023-05-10T08:58:04;6.85;;;4.00;;
51612;SDS011;37694;51.748;14.326;2023-05-10T09:00:30;5.90;;;3.53;;
51612;SDS011;37694;51.748;14.326;2023-05-10T09:02:57;7.90;;;3.78;;
51612;SDS011;37694;51.748;14.326;2023-05-10T09:05:23;3.80;;;3.33;;
51612;SDS011;37694;51.748;14.326;2023-05-10T09:07:49;7.28;;;3.90;;
51612;SDS011;37694;51.748;14.326;2023-05-10T09:10:15;4.85;;;3.50;;
51612;SDS011;37694;51.748;14.326;2023-05-10T09:12:41;5.55;;;3.40;;
51612;SDS011;37694;51.748;14.326;2023-05-10T09:15:09;3.90;;;2.97;;
51612;SDS011;37694;51.748;14.326;2023-05-10T09:17:35;3.85;;;3.08;;
51612;SDS011;37694;51.748;14.326;2023-05-10T09:20:03;5.35;;;3.63;;
51612;SDS011;37694;51.748;14.326;2023-05-10T09:22:30;3.67;;;3.38;;
51612;SDS011;37694;51.748;14.326;2023-05-10T09:25:06;3.40;;;3.10;;
51612;SDS011;37694;51.748;14.326;2023-05-10T09:27:32;3.65;;;3.22;;
51612;SDS011;37694;51.748;14.326;2023-05-10T09:29:58;3.60;;;2.75;;
51612;SDS011;37694;51.748;14.326;2023-05-10T09:32:43;4.80;;;3.30;;
51612;SDS011;37694;51.748;14.326;2023-05-10T09:35:19;3.72;;;3.25;;
51612;SDS011;37694;51.748;14.326;2023-05-10T09:37:49;4.53;;;3.42;;
51612;SDS011;37694;51.748;14.326;2023-05-10T09:40:16;5.85;;;3.33;;
51612;SDS011;37694;51.748;14.326;2023-05-10T09:43:03;4.38;;;2.65;;
51612;SDS011;37694;51.748;14.326;2023-05-10T09:45:33;3.22;;;2.67;;
51612;SDS011;37694;51.748;14.326;2023-05-10T09:48:01;6.07;;;3.05;;
51612;SDS011;37694;51.748;14.326;2023-05-10T09:50:29;6.95;;;2.83;;
51612;SDS011;37694;51.748;14.326;2023-05-10T09:52:56;3.92;;;2.95;;
51612;SDS011;37694;51.748;14.326;2023-05-10T09:55:26;4.68;;;2.85;;
51612;SDS011;37694;51.748;14.326;2023-05-10T09:58:06;3.28;;;2.95;;
51612;SDS011;37694;51.748;14.326;2023-05-10T10:00:41;3.50;;;2.67;;
51612;SDS011;37694;51.748;14.326;2023-05-10T10:03:16;3.05;;;2.75;;
51612;SDS011;37694;51.748;14.326;2023-05-10T10:05:42;5.88;;;2.20;;
51612;SDS011;37694;51.748;14.326;2023-05-10T10:08:09;3.38;;;2.95;;
51612;SDS011;37694;51.748;14.326;2023-05-10T10:10:35;2.97;;;2.70;;
51612;SDS011;37694;51.748;14.326;2023-05-10T10:13:01;4.30;;;2.85;;
51612;SDS011;37694;51.748;14.326;2023-05-10T10:15:27;4.68;;;2.75;;
51612;SDS011;37694;51.748;14.326;2023-05-10T10:17:53;3.78;;;2.97;;
51612;SDS011;37694;51.748;14.326;2023-05-10T10:20:19;5.82;;;3.38;;
51612;SDS011;37694;51.748;14.326;2023-05-10T10:22:46;3.13;;;2.83;;
51612;SDS011;37694;51.748;14.326;2023-05-10T10:25:13;3.20;;;2.88;;
51612;SDS011;37694;51.748;14.326;2023-05-10T10:35:36;5.45;;;2.33;;
51612;SDS011;37694;51.748;14.326;2023-05-10T10:38:02;3.45;;;2.92;;
51612;SDS011;37694;51.748;14.326;2023-05-10T10:40:28;3.13;;;2.72;;
51612;SDS011;37694;51.748;14.326;2023-05-10T10:42:55;2.95;;;2.65;;
51612;SDS011;37694;51.748;14.326;2023-05-10T10:45:23;6.53;;;2.85;;
51612;SDS011;37694;51.748;14.326;2023-05-10T10:50:58;3.03;;;2.72;;
51612;SDS011;37694;51.748;14.326;2023-05-10T10:53:27;2.60;;;2.40;;
51612;SDS011;37694;51.748;14.326;2023-05-10T10:56:02;4.63;;;3.17;;
51612;SDS011;37694;51.748;14.326;2023-05-10T10:58:34;2.45;;;2.25;;
51612;SDS011;37694;51.748;14.326;2023-05-10T11:01:13;3.75;;;2.70;;
51612;SDS011;37694;51.748;14.326;2023-05-10T11:03:41;5.32;;;2.75;;
51612;SDS011;37694;51.748;14.326;2023-05-10T11:08:57;3.78;;;2.72;;
51612;SDS011;37694;51.748;14.326;2023-05-10T11:11:23;2.45;;;2.25;;
51612;SDS011;37694;51.748;14.326;2023-05-10T11:13:49;2.67;;;2.47;;
51612;SDS011;37694;51.748;14.326;2023-05-10T11:16:22;3.88;;;2.20;;
51612;SDS011;37694;51.748;14.326;2023-05-10T11:21:18;2.70;;;2.50;;
51612;SDS011;37694;51.748;14.326;2023-05-10T11:23:51;2.80;;;2.10;;
51612;SDS011;37694;51.748;14.326;2023-05-10T11:26:21;2.47;;;2.28;;
51612;SDS011;37694;51.748;14.326;2023-05-10T11:28:50;3.05;;;2.45;;
51612;SDS011;37694;51.748;14.326;2023-05-10T11:31:16;3.00;;;2.25;;
51612;SDS011;37694;51.748;14.326;2023-05-10T11:33:43;2.45;;;2.25;;
51612;SDS011;37694;51.748;14.326;2023-05-10T11:36:11;2.28;;;2.15;;
51612;SDS011;37694;51.748;14.326;2023-05-10T11:38:37;2.42;;;2.22;;
51612;SDS011;37694;51.748;14.326;2023-05-10T11:41:03;3.20;;;2.47;;
51612;SDS011;37694;51.748;14.326;2023-05-10T11:43:28;3.70;;;2.28;;
51612;SDS011;37694;51.748;14.326;2023-05-10T11:45:55;2.20;;;1.95;;
51612;SDS011;37694;51.748;14.326;2023-05-10T11:48:21;3.55;;;2.33;;
51612;SDS011;37694;51.748;14.326;2023-05-10T11:50:49;2.15;;;2.00;;
51612;SDS011;37694;51.748;14.326;2023-05-10T11:53:15;2.22;;;2.03;;
51612;SDS011;37694;51.748;14.326;2023-05-10T11:55:40;3.10;;;2.33;;
51612;SDS011;37694;51.748;14.326;2023-05-10T11:58:06;3.42;;;2.30;;
51612;SDS011;37694;51.748;14.326;2023-05-10T12:00:32;2.47;;;2.13;;
51612;SDS011;37694;51.748;14.326;2023-05-10T12:02:59;2.03;;;1.90;;
51612;SDS011;37694;51.748;14.326;2023-05-10T12:05:26;2.40;;;2.17;;
51612;SDS011;37694;51.748;14.326;2023-05-10T12:07:51;1.90;;;1.70;;
51612;SDS011;37694;51.748;14.326;2023-05-10T12:10:17;1.42;;;1.33;;
51612;SDS011;37694;51.748;14.326;2023-05-10T12:12:51;1.40;;;1.33;;
51612;SDS011;37694;51.748;14.326;2023-05-10T12:15:21;1.17;;;1.10;;
51612;SDS011;37694;51.748;14.326;2023-05-10T12:17:48;1.30;;;1.20;;
51612;SDS011;37694;51.748;14.326;2023-05-10T12:20:15;1.00;;;1.00;;
51612;SDS011;37694;51.748;14.326;2023-05-10T12:22:52;0.90;;;0.90;;
51612;SDS011;37694;51.748;14.326;2023-05-10T12:25:20;0.95;;;0.93;;
51612;SDS011;37694;51.748;14.326;2023-05-10T12:27:56;0.80;;;0.80;;
51612;SDS011;37694;51.748;14.326;2023-05-10T12:30:27;0.63;;;0.63;;
51612;SDS011;37694;51.748;14.326;2023-05-10T12:32:54;0.50;;;0.50;;
51612;SDS011;37694;51.748;14.326;2023-05-10T12:35:29;0.60;;;0.60;;
51612;SDS011;37694;51.748;14.326;2023-05-10T12:37:56;0.52;;;0.50;;
51612;SDS011;37694;51.748;14.326;2023-05-10T12:40:21;0.73;;;0.43;;
51612;SDS011;37694;51.748;14.326;2023-05-10T12:42:47;0.55;;;0.55;;
51612;SDS011;37694;51.748;14.326;2023-05-10T12:45:13;0.30;;;0.30;;
51612;SDS011;37694;51.748;14.326;2023-05-10T12:47:39;0.30;;;0.30;;
51612;SDS011;37694;51.748;14.326;2023-05-10T12:50:05;0.40;;;0.40;;
51612;SDS011;37694;51.748;14.326;2023-05-10T12:52:32;0.28;;;0.28;;
51612;SDS011;37694;51.748;14.326;2023-05-10T12:54:58;0.20;;;0.20;;
51612;SDS011;37694;51.748;14.326;2023-05-10T12:57:24;0.40;;;0.40;;
51612;SDS011;37694;51.748;14.326;2023-05-10T12:59:50;0.28;;;0.28;;
51612;SDS011;37694;51.748;14.326;2023-05-10T13:02:16;0.38;;;0.38;;
51612;SDS011;37694;51.748;14.326;2023-05-10T13:04:46;0.30;;;0.30;;
51612;SDS011;37694;51.748;14.326;2023-05-10T13:07:12;0.45;;;0.40;;
51612;SDS011;37694;51.748;14.326;2023-05-10T13:09:37;0.28;;;0.28;;
51612;SDS011;37694;51.748;14.326;2023-05-10T13:12:03;0.20;;;0.20;;
51612;SDS011;37694;51.748;14.326;2023-05-10T13:14:29;0.40;;;0.40;;
51612;SDS011;37694;51.748;14.326;2023-05-10T13:16:55;0.20;;;0.20;;
51612;SDS011;37694;51.748;14.326;2023-05-10T13:19:21;0.20;;;0.20;;
51612;SDS011;37694;51.748;14.326;2023-05-10T13:21:47;0.60;;;0.20;;
51612;SDS011;37694;51.748;14.326;2023-05-10T13:24:12;0.40;;;0.40;;
51612;SDS011;37694;51.748;14.326;2023-05-10T13:26:41;0.20;;;0.20;;
51612;SDS011;37694;51.748;14.326;2023-05-10T13:29:07;0.50;;;0.50;;
51612;SDS011;37694;51.748;14.326;2023-05-10T13:31:34;0.20;;;0.20;;
51612;SDS011;37694;51.748;14.326;2023-05-10T13:34:00;0.30;;;0.30;;
51612;SDS011;37694;51.748;14.326;2023-05-10T13:36:26;0.40;;;0.40;;
51612;SDS011;37694;51.748;14.326;2023-05-10T13:38:51;0.40;;;0.40;;
51612;SDS011;37694;51.748;14.326;2023-05-10T13:41:17;0.32;;;0.32;;
51612;SDS011;37694;51.748;14.326;2023-05-10T13:43:43;0.40;;;0.40;;
51612;SDS011;37694;51.748;14.326;2023-05-10T13:46:08;0.20;;;0.20;;
51612;SDS011;37694;51.748;14.326;2023-05-10T13:48:34;0.40;;;0.40;;
51612;SDS011;37694;51.748;14.326;2023-05-10T13:51:02;0.40;;;0.40;;
51612;SDS011;37694;51.748;14.326;2023-05-10T13:53:27;0.40;;;0.40;;
51612;SDS011;37694;51.748;14.326;2023-05-10T13:55:53;0.40;;;0.40;;
51612;SDS011;37694;51.748;14.326;2023-05-10T13:58:19;0.30;;;0.30;;
51612;SDS011;37694;51.748;14.326;2023-05-10T14:00:45;0.60;;;0.60;;
51612;SDS011;37694;51.748;14.326;2023-05-10T14:03:10;0.40;;;0.40;;
51612;SDS011;37694;51.748;14.326;2023-05-10T14:05:36;0.40;;;0.40;;
51612;SDS011;37694;51.748;14.326;2023-05-10T14:08:02;0.70;;;0.60;;
51612;SDS011;37694;51.748;14.326;2023-05-10T14:10:28;0.50;;;0.50;;
51612;SDS011;37694;51.748;14.326;2023-05-10T14:12:55;0.43;;;0.43;;
51612;SDS011;37694;51.748;14.326;2023-05-10T14:15:20;0.50;;;0.50;;
51612;SDS011;37694;51.748;14.326;2023-05-10T14:17:46;0.40;;;0.40;;
51612;SDS011;37694;51.748;14.326;2023-05-10T14:20:12;0.47;;;0.47;;
51612;SDS011;37694;51.748;14.326;2023-05-10T14:22:37;0.40;;;0.40;;
51612;SDS011;37694;51.748;14.326;2023-05-10T14:25:03;0.57;;;0.57;;
51612;SDS011;37694;51.748;14.326;2023-05-10T14:27:29;0.60;;;0.60;;
51612;SDS011;37694;51.748;14.326;2023-05-10T14:29:55;0.52;;;0.52;;
51612;SDS011;37694;51.748;14.326;2023-05-10T14:32:21;0.52;;;0.52;;
51612;SDS011;37694;51.748;14.326;2023-05-10T14:34:46;2.50;;;0.52;;
51612;SDS011;37694;51.748;14.326;2023-05-10T14:37:13;0.50;;;0.50;;
51612;SDS011;37694;51.748;14.326;2023-05-10T14:39:39;0.57;;;0.57;;
51612;SDS011;37694;51.748;14.326;2023-05-10T14:42:05;0.70;;;0.70;;
51612;SDS011;37694;51.748;14.326;2023-05-10T14:44:30;0.50;;;0.50;;
51612;SDS011;37694;51.748;14.326;2023-05-10T14:46:56;0.52;;;0.50;;
51612;SDS011;37694;51.748;14.326;2023-05-10T14:49:22;0.60;;;0.60;;
51612;SDS011;37694;51.748;14.326;2023-05-10T14:51:50;0.68;;;0.68;;
51612;SDS011;37694;51.748;14.326;2023-05-10T14:54:16;2.83;;;0.70;;
51612;SDS011;37694;51.748;14.326;2023-05-10T14:56:41;0.50;;;0.50;;
51612;SDS011;37694;51.748;14.326;2023-05-10T14:59:07;0.55;;;0.55;;
51612;SDS011;37694;51.748;14.326;2023-05-10T15:01:33;0.57;;;0.57;;
51612;SDS011;37694;51.748;14.326;2023-05-10T15:04:02;0.50;;;0.50;;
51612;SDS011;37694;51.748;14.326;2023-05-10T15:06:31;0.60;;;0.60;;
51612;SDS011;37694;51.748;14.326;2023-05-10T15:08:59;1.13;;;0.73;;
51612;SDS011;37694;51.748;14.326;2023-05-10T15:11:25;0.70;;;0.70;;